RKNY

Yangyang International Airport

Sokcho / Gangneung, South Korea
METAR RKNY 201600Z AUTO 26004KT 9999 ///057/// 18/17 Q1012
Observed Flight Rules
Sep-20 @ 16:00 UTC (34 minutes ago)
Wind Visibility
260° at 4 knots 10,000+ meters
Temperatures Readings
Current 18°C / 64°F
Dewpoint 17°C / 63°F
Humidity 94%
Altimeter 29.88" Hg
Pressure 1012 hPa
Elevation 74
METAR RKNY 201600Z AUTO 26004KT 9999 ///057/// 18/17 Q1012
Observed Flight Rules
Sep-20 @ 16:00 UTC
(34 minutes ago)
Wind Visibility
260° at 4 knots 10,000+ meters
Temperature Dewpoint
18°C / 64°F 17°C / 63°F
Humidity Altimeter Pressure
94% 29.88" Hg 1012 hPa